Time;durP1;ratioP1;P1;durP2;ratioP2;P2;SDS_P1;SDS_P2;PMS_P1;PMS_P2;Temp;Humidity;BMP_temperature;BMP_pressure;BME280_temperature;BME280_humidity;BME280_pressure;Samples;Min_cycle;Max_cycle;Signal;HPM_P1;HPM_P2
2021/03/31 00:00:22;;;;;;;15.07;9.25;;;17.00;34.50;;;;;;4999296;28;20026;-88
2021/03/31 00:02:49;;;;;;;17.48;10.27;;;16.90;34.60;;;;;;5020490;28;20029;-89
2021/03/31 00:05:15;;;;;;;14.50;9.52;;;16.90;34.70;;;;;;5008236;28;20034;-89
2021/03/31 00:07:41;;;;;;;17.23;9.55;;;16.90;34.80;;;;;;5006341;28;20056;-89
2021/03/31 00:10:17;;;;;;;14.77;8.73;;;16.90;34.90;;;;;;5014341;28;20030;-90
2021/03/31 00:12:42;;;;;;;15.07;8.88;;;16.80;35.10;;;;;;5018478;28;20113;-88
2021/03/31 00:15:09;;;;;;;15.93;8.77;;;16.80;35.20;;;;;;5016469;28;20112;-90
2021/03/31 00:17:34;;;;;;;16.55;9.63;;;16.80;35.20;;;;;;5013358;28;20030;-90
2021/03/31 00:20:00;;;;;;;14.00;7.75;;;16.80;36.00;;;;;;5004880;28;20335;-90
2021/03/31 00:22:25;;;;;;;19.52;10.82;;;16.80;35.40;;;;;;5011893;28;20383;-90
2021/03/31 00:24:51;;;;;;;15.05;8.50;;;16.80;35.30;;;;;;5013300;28;20030;-90
2021/03/31 00:27:16;;;;;;;15.35;9.57;;;16.70;36.00;;;;;;5009010;28;20556;-90
2021/03/31 00:29:42;;;;;;;16.98;9.70;;;16.70;35.30;;;;;;5006684;28;20125;-89
2021/03/31 00:32:08;;;;;;;17.85;9.20;;;16.70;35.40;;;;;;5017858;28;20105;-89
2021/03/31 00:34:33;;;;;;;15.40;9.48;;;16.70;35.40;;;;;;5014039;28;20057;-89
2021/03/31 00:36:59;;;;;;;14.05;8.35;;;16.70;35.50;;;;;;5018793;28;20033;-90
2021/03/31 00:39:24;;;;;;;15.70;8.27;;;16.70;35.60;;;;;;5015767;28;20022;-89
2021/03/31 00:41:50;;;;;;;14.77;8.02;;;16.70;35.60;;;;;;5018743;28;20033;-90
2021/03/31 00:44:19;;;;;;;14.73;8.45;;;16.70;35.80;;;;;;5013514;28;20018;-90
2021/03/31 00:46:45;;;;;;;11.45;6.65;;;16.70;35.80;;;;;;5014627;28;20030;-90
2021/03/31 00:49:10;;;;;;;16.05;8.52;;;16.70;35.90;;;;;;5013287;28;20092;-90
2021/03/31 00:51:36;;;;;;;15.43;8.30;;;16.60;35.90;;;;;;5004605;28;20037;-90
2021/03/31 00:54:02;;;;;;;13.20;7.10;;;16.60;35.90;;;;;;5013452;28;20037;-91
2021/03/31 00:56:30;;;;;;;18.30;10.50;;;16.60;35.90;;;;;;5010095;28;20042;-90
2021/03/31 00:58:55;;;;;;;13.95;8.90;;;16.60;35.70;;;;;;5009453;28;20053;-90
2021/03/31 01:01:21;;;;;;;14.27;8.52;;;16.60;35.80;;;;;;5015892;28;20042;-89
2021/03/31 01:03:47;;;;;;;13.25;7.93;;;16.60;35.90;;;;;;5013017;28;20036;-89
2021/03/31 01:06:13;;;;;;;15.98;8.85;;;16.60;36.00;;;;;;5014764;28;20029;-89
2021/03/31 01:08:38;;;;;;;13.13;7.95;;;16.60;36.10;;;;;;5019642;28;20065;-87
2021/03/31 01:11:04;;;;;;;13.13;7.88;;;16.50;36.30;;;;;;5011745;28;20029;-89
2021/03/31 01:13:45;;;;;;;12.07;7.13;;;16.50;36.30;;;;;;5026583;28;20060;-89
2021/03/31 01:16:29;;;;;;;12.77;6.55;;;16.50;36.50;;;;;;5013782;28;20023;-89
2021/03/31 01:19:13;;;;;;;11.65;6.50;;;16.40;36.50;;;;;;4992350;28;20033;-88
2021/03/31 01:21:51;;;;;;;10.90;6.65;;;16.30;36.60;;;;;;5018322;28;20026;-88
2021/03/31 01:24:34;;;;;;;11.48;6.90;;;16.30;36.70;;;;;;5011836;28;20030;-88
2021/03/31 01:27:10;;;;;;;11.25;7.15;;;16.30;36.90;;;;;;5014154;28;20484;-89
2021/03/31 01:30:00;;;;;;;12.70;7.55;;;16.20;36.90;;;;;;5012778;28;20463;-88
2021/03/31 01:32:39;;;;;;;9.40;5.60;;;16.20;37.00;;;;;;5014029;28;20026;-87
2021/03/31 01:35:10;;;;;;;9.27;5.55;;;16.20;37.00;;;;;;5007795;28;20034;-92
2021/03/31 01:37:43;;;;;;;10.60;6.07;;;16.20;37.20;;;;;;5013186;28;20373;-91
2021/03/31 01:40:12;;;;;;;10.93;6.10;;;16.10;37.30;;;;;;5012807;28;20022;-90
2021/03/31 01:42:41;;;;;;;11.32;6.20;;;16.10;37.30;;;;;;5012742;28;20022;-90
2021/03/31 01:45:09;;;;;;;10.02;6.00;;;16.00;37.20;;;;;;5012524;28;20026;-88
2021/03/31 01:47:39;;;;;;;11.00;6.10;;;16.00;37.30;;;;;;5012635;28;20416;-90
2021/03/31 01:50:07;;;;;;;9.45;5.80;;;16.00;37.40;;;;;;5011918;28;20116;-88
2021/03/31 01:52:34;;;;;;;9.55;6.03;;;15.90;37.40;;;;;;5020457;28;20125;-88
2021/03/31 01:55:01;;;;;;;10.73;6.25;;;15.90;37.50;;;;;;5011501;28;20034;-89
2021/03/31 01:57:27;;;;;;;9.43;5.88;;;15.90;37.70;;;;;;5014345;28;20040;-89
2021/03/31 01:59:54;;;;;;;10.25;5.97;;;15.80;37.80;;;;;;5011557;28;20063;-89
2021/03/31 02:02:22;;;;;;;10.35;6.28;;;15.70;38.00;;;;;;5009902;28;20457;-90
2021/03/31 02:04:48;;;;;;;9.80;5.93;;;15.70;38.20;;;;;;5011826;28;20036;-88
2021/03/31 02:07:13;;;;;;;10.05;6.25;;;15.60;38.20;;;;;;5009780;28;20018;-89
2021/03/31 02:09:43;;;;;;;9.55;6.15;;;15.60;38.20;;;;;;5015572;28;20046;-88
2021/03/31 02:12:13;;;;;;;9.77;5.95;;;15.50;38.20;;;;;;5010302;28;20025;-87
2021/03/31 02:14:42;;;;;;;11.82;6.78;;;15.50;38.30;;;;;;5011657;28;20037;-89
2021/03/31 02:17:09;;;;;;;11.05;6.63;;;15.40;38.40;;;;;;5008953;28;20018;-89
2021/03/31 02:19:38;;;;;;;11.30;7.10;;;15.40;38.50;;;;;;5003666;28;20029;-89
2021/03/31 02:22:06;;;;;;;12.18;6.40;;;15.40;38.60;;;;;;5006977;28;20889;-89
2021/03/31 02:24:33;;;;;;;10.38;6.50;;;15.40;39.30;;;;;;5006995;28;20026;-89
2021/03/31 02:26:58;;;;;;;10.45;5.90;;;15.30;38.70;;;;;;5011371;28;20030;-90
2021/03/31 02:29:24;;;;;;;13.57;6.55;;;15.30;38.80;;;;;;5005889;28;20030;-88
2021/03/31 02:31:52;;;;;;;11.88;7.20;;;15.20;38.80;;;;;;5020625;28;20034;-86
2021/03/31 02:34:19;;;;;;;11.27;6.70;;;15.20;38.90;;;;;;5009983;28;20659;-90
2021/03/31 02:36:45;;;;;;;10.85;6.63;;;15.20;39.10;;;;;;5009431;28;20026;-88
2021/03/31 02:39:13;;;;;;;11.20;6.70;;;15.10;39.10;;;;;;5008726;28;20018;-89
2021/03/31 02:41:43;;;;;;;11.77;6.65;;;15.10;39.20;;;;;;5014340;28;20053;-88
2021/03/31 02:44:11;;;;;;;12.00;7.13;;;15.10;39.30;;;;;;5011827;28;20428;-88
2021/03/31 02:46:38;;;;;;;12.38;7.28;;;15.00;39.30;;;;;;5000761;28;20026;-88
2021/03/31 02:49:07;;;;;;;11.10;5.97;;;15.00;39.40;;;;;;5014525;28;20142;-89
2021/03/31 02:51:37;;;;;;;11.32;6.82;;;14.90;39.40;;;;;;5009878;28;20033;-89
2021/03/31 02:54:06;;;;;;;10.65;6.22;;;14.90;39.50;;;;;;5015113;28;20095;-89
2021/03/31 02:56:33;;;;;;;11.55;6.60;;;14.90;39.60;;;;;;5002327;28;20025;-89
2021/03/31 02:59:02;;;;;;;11.65;6.65;;;14.80;39.60;;;;;;5011182;28;20065;-88
2021/03/31 03:01:28;;;;;;;11.75;6.57;;;14.80;39.70;;;;;;5009663;28;20126;-89
2021/03/31 03:03:57;;;;;;;11.27;6.10;;;14.80;39.80;;;;;;5012047;28;20609;-89
2021/03/31 03:06:29;;;;;;;12.20;6.93;;;14.80;39.90;;;;;;5017224;28;20014;-90
2021/03/31 03:08:57;;;;;;;10.60;6.40;;;14.70;40.00;;;;;;5004341;28;20045;-89
2021/03/31 03:11:24;;;;;;;9.98;6.18;;;14.70;40.10;;;;;;4997917;28;20033;-88
2021/03/31 03:13:51;;;;;;;11.80;6.82;;;14.60;40.10;;;;;;5003705;28;20018;-89
2021/03/31 03:16:17;;;;;;;13.02;6.90;;;14.60;40.20;;;;;;5010318;28;20126;-88
2021/03/31 03:18:43;;;;;;;11.20;6.80;;;14.60;40.20;;;;;;5003965;28;20626;-88
2021/03/31 03:21:10;;;;;;;12.57;7.95;;;14.50;40.20;;;;;;5018098;28;20014;-87
2021/03/31 03:23:36;;;;;;;13.40;7.10;;;14.50;40.30;;;;;;5005562;28;20034;-89
2021/03/31 03:26:03;;;;;;;12.32;6.70;;;14.50;40.40;;;;;;4997916;28;20097;-89
2021/03/31 03:28:31;;;;;;;11.45;7.22;;;14.40;40.50;;;;;;5007688;28;20038;-87
2021/03/31 03:30:58;;;;;;;10.75;6.63;;;14.40;40.70;;;;;;5004993;28;20481;-89
2021/03/31 03:33:25;;;;;;;13.43;7.38;;;14.40;40.70;;;;;;5010256;28;20121;-89
2021/03/31 03:35:51;;;;;;;12.68;6.53;;;14.30;40.80;;;;;;5008983;28;20017;-89
2021/03/31 03:38:22;;;;;;;11.48;7.05;;;14.30;40.90;;;;;;5008283;28;20523;-89
2021/03/31 03:40:47;;;;;;;12.50;6.75;;;14.30;40.90;;;;;;5000751;28;20030;-88
2021/03/31 03:43:17;;;;;;;11.00;6.15;;;14.30;40.90;;;;;;5011620;28;20032;-89
2021/03/31 03:45:43;;;;;;;12.85;6.88;;;14.20;41.10;;;;;;5021686;28;20031;-86
2021/03/31 03:48:10;;;;;;;11.55;6.78;;;14.20;41.20;;;;;;5017101;28;20476;-88
2021/03/31 03:50:36;;;;;;;11.80;6.95;;;14.10;41.30;;;;;;5009757;28;20038;-87
2021/03/31 03:53:02;;;;;;;10.55;6.80;;;14.10;41.40;;;;;;5007807;28;20101;-89
2021/03/31 03:55:27;;;;;;;11.27;6.63;;;14.10;41.50;;;;;;5007834;28;20096;-89
2021/03/31 03:57:53;;;;;;;12.25;7.28;;;14.10;41.50;;;;;;5015739;28;20476;-88
2021/03/31 04:00:23;;;;;;;12.35;7.60;;;14.00;41.50;;;;;;5017759;28;20010;-87
2021/03/31 04:02:55;;;;;;;12.80;7.75;;;14.00;41.60;;;;;;5007312;28;20030;-89
2021/03/31 04:05:21;;;;;;;11.30;6.75;;;14.00;41.60;;;;;;5028343;28;20105;-88
2021/03/31 04:07:47;;;;;;;11.98;7.13;;;14.00;41.60;;;;;;5015387;28;20623;-88
2021/03/31 04:10:16;;;;;;;11.32;7.13;;;13.90;41.70;;;;;;5015526;28;20132;-88
2021/03/31 04:12:41;;;;;;;11.25;6.50;;;13.90;41.70;;;;;;5010042;28;20153;-88
2021/03/31 04:15:09;;;;;;;11.68;6.72;;;13.90;41.70;;;;;;5012595;28;20052;-89
2021/03/31 04:17:38;;;;;;;12.50;7.47;;;13.90;41.90;;;;;;5015041;28;20022;-92
2021/03/31 04:20:08;;;;;;;10.73;6.95;;;13.90;42.00;;;;;;5013255;28;20033;-92
2021/03/31 04:22:34;;;;;;;10.80;6.60;;;13.90;42.00;;;;;;5003974;28;20499;-90
2021/03/31 04:24:59;;;;;;;11.93;6.80;;;13.80;42.10;;;;;;5001772;28;20022;-91
2021/03/31 04:27:27;;;;;;;10.70;6.57;;;13.80;42.10;;;;;;5003649;28;20067;-89
2021/03/31 04:29:53;;;;;;;11.07;6.50;;;13.70;42.10;;;;;;4999870;28;20534;-88
2021/03/31 04:32:20;;;;;;;10.30;6.28;;;13.70;42.20;;;;;;5016232;28;20376;-88
2021/03/31 04:34:46;;;;;;;10.80;6.18;;;13.70;42.30;;;;;;5015934;28;20587;-89
2021/03/31 04:37:15;;;;;;;11.68;6.30;;;13.60;42.30;;;;;;5013588;28;20084;-89
2021/03/31 04:39:42;;;;;;;12.57;7.13;;;13.60;42.50;;;;;;5018133;28;20457;-87
2021/03/31 04:42:08;;;;;;;10.25;6.68;;;13.60;42.50;;;;;;5013616;28;20045;-86
2021/03/31 04:44:34;;;;;;;11.80;6.90;;;13.50;42.60;;;;;;5018780;28;20032;-89
2021/03/31 04:47:03;;;;;;;10.93;6.75;;;13.50;42.70;;;;;;5006682;28;20479;-86
2021/03/31 04:49:28;;;;;;;10.63;6.53;;;13.40;42.80;;;;;;5010158;28;20041;-87
2021/03/31 04:51:54;;;;;;;11.25;7.10;;;13.40;42.90;;;;;;5024774;28;20027;-85
2021/03/31 04:54:19;;;;;;;9.70;5.28;;;13.40;43.10;;;;;;5012497;28;20018;-90
2021/03/31 04:56:45;;;;;;;13.10;7.70;;;13.30;43.90;;;;;;5014205;28;20112;-88
2021/03/31 04:59:11;;;;;;;14.00;7.68;;;13.20;43.60;;;;;;5011113;28;20469;-90
2021/03/31 05:01:38;;;;;;;12.00;7.03;;;13.20;43.70;;;;;;5010006;28;20053;-88
2021/03/31 05:04:03;;;;;;;11.63;6.78;;;13.10;43.70;;;;;;5000746;28;20030;-87
2021/03/31 05:06:29;;;;;;;9.93;6.13;;;13.10;43.90;;;;;;5015378;28;20155;-90
2021/03/31 05:08:55;;;;;;;12.15;6.82;;;13.00;44.00;;;;;;5015448;28;20164;-89
2021/03/31 05:11:20;;;;;;;13.20;6.85;;;13.00;44.30;;;;;;5025462;28;20061;-89
2021/03/31 05:13:46;;;;;;;11.48;7.20;;;12.90;44.30;;;;;;5025745;28;20022;-90
2021/03/31 05:16:11;;;;;;;11.10;6.72;;;12.90;44.40;;;;;;5014779;28;20021;-90
2021/03/31 05:18:37;;;;;;;9.48;6.57;;;12.90;45.10;;;;;;5012797;28;20160;-89
2021/03/31 05:21:02;;;;;;;12.77;7.30;;;12.90;44.60;;;;;;5023928;28;20119;-90
2021/03/31 05:23:28;;;;;;;11.85;7.15;;;12.80;44.70;;;;;;5013864;28;20029;-88
2021/03/31 05:25:54;;;;;;;9.70;6.30;;;12.80;44.90;;;;;;5014079;28;20724;-90
2021/03/31 05:28:19;;;;;;;11.88;7.07;;;12.80;44.90;;;;;;5015536;28;20040;-89
2021/03/31 05:30:45;;;;;;;12.77;6.78;;;12.70;45.00;;;;;;5021920;28;20105;-96
2021/03/31 05:33:18;;;;;;;11.43;7.07;;;12.70;45.10;;;;;;5012881;28;20132;-96
2021/03/31 05:35:43;;;;;;;11.93;7.38;;;12.70;45.40;;;;;;5015024;28;20029;-96
2021/03/31 05:38:09;;;;;;;10.35;7.05;;;12.70;45.30;;;;;;5024697;28;20354;-96
2021/03/31 05:40:35;;;;;;;11.07;7.32;;;12.70;45.40;;;;;;5019157;28;20030;-96
2021/03/31 05:43:00;;;;;;;11.32;6.85;;;12.60;45.50;;;;;;5029784;28;20032;-96
2021/03/31 05:45:28;;;;;;;10.95;6.68;;;12.60;45.80;;;;;;5019585;28;20079;-96
2021/03/31 05:48:09;;;;;;;11.20;6.93;;;12.60;45.80;;;;;;5023513;28;20018;-96
2021/03/31 05:50:36;;;;;;;12.32;6.22;;;13.20;45.40;;;;;;5187807;22;20373;-96
2021/03/31 05:53:04;;;;;;;10.80;7.32;;;13.90;44.50;;;;;;5032438;28;20034;-96
2021/03/31 05:55:31;;;;;;;14.00;7.75;;;14.60;43.30;;;;;;5040130;28;20041;-96
2021/03/31 05:57:58;;;;;;;11.15;7.25;;;15.60;41.90;;;;;;5051511;28;20021;-96
2021/03/31 06:00:26;;;;;;;11.63;7.75;;;16.40;40.70;;;;;;5202804;22;20112;-96
2021/03/31 06:11:15;;;;;;;13.98;7.93;;;19.10;37.80;;;;;;5989471;22;20049;-96
2021/03/31 06:14:03;;;;;;;12.77;7.45;;;19.90;36.30;;;;;;5219242;23;20060;-96
2021/03/31 06:16:37;;;;;;;11.82;7.88;;;20.50;35.50;;;;;;5051039;28;20020;-94
2021/03/31 06:19:25;;;;;;;14.55;7.85;;;21.10;34.80;;;;;;5050423;28;20041;-96
2021/03/31 06:23:05;;;;;;;9.82;5.88;;;21.60;34.10;;;;;;5042168;28;20021;-96
2021/03/31 06:26:04;;;;;;;11.32;7.32;;;22.20;33.50;;;;;;4969756;28;20026;-96
2021/03/31 06:28:35;;;;;;;11.85;8.10;;;22.60;33.00;;;;;;4973314;28;20474;-96
2021/03/31 06:31:20;;;;;;;11.35;6.82;;;23.10;32.50;;;;;;4950600;28;20023;-94
2021/03/31 06:33:47;;;;;;;12.27;7.53;;;23.50;31.80;;;;;;5017854;28;20109;-94
2021/03/31 06:36:32;;;;;;;14.77;8.30;;;24.00;31.60;;;;;;5032353;28;20005;-96
2021/03/31 06:38:58;;;;;;;11.20;7.15;;;24.40;30.90;;;;;;5031375;28;20022;-94
2021/03/31 06:41:28;;;;;;;12.02;7.00;;;24.80;30.40;;;;;;5028578;28;20030;-96
2021/03/31 06:44:18;;;;;;;9.73;6.65;;;25.10;30.00;;;;;;5022893;28;20415;-95
2021/03/31 06:49:21;;;;;;;12.52;7.78;;;25.50;29.20;;;;;;5041932;28;20069;-96
2021/03/31 06:51:48;;;;;;;14.23;7.95;;;25.30;28.80;;;;;;5041404;28;20040;-96
2021/03/31 06:54:20;;;;;;;11.90;7.35;;;24.80;28.90;;;;;;5044380;28;20073;-95
2021/03/31 06:56:57;;;;;;;7.88;5.63;;;24.20;29.00;;;;;;5034506;28;20017;-96
2021/03/31 06:59:33;;;;;;;14.23;7.82;;;23.70;29.60;;;;;;5019746;28;20022;-94
2021/03/31 07:02:03;;;;;;;13.95;9.88;;;23.20;29.50;;;;;;5021754;28;20057;-95
2021/03/31 07:04:40;;;;;;;13.10;8.85;;;22.50;29.80;;;;;;5022269;28;20029;-95
2021/03/31 07:07:09;;;;;;;15.23;9.25;;;22.00;29.90;;;;;;5026114;28;20117;-93
2021/03/31 07:09:39;;;;;;;14.48;9.52;;;21.60;30.40;;;;;;5026322;28;20479;-94
2021/03/31 07:12:36;;;;;;;11.45;7.70;;;21.10;31.10;;;;;;5025319;28;20124;-93
2021/03/31 07:15:01;;;;;;;10.98;7.32;;;20.60;31.90;;;;;;5046477;28;20045;-96
2021/03/31 07:17:28;;;;;;;13.90;8.80;;;20.20;33.00;;;;;;5031066;28;20476;-96
2021/03/31 07:19:55;;;;;;;12.82;7.57;;;20.00;33.10;;;;;;5031071;28;20022;-94
2021/03/31 07:22:20;;;;;;;11.70;7.90;;;19.80;33.70;;;;;;5035650;28;20331;-96
2021/03/31 07:24:46;;;;;;;11.27;7.57;;;19.50;33.90;;;;;;5050081;28;20045;-96
2021/03/31 07:27:16;;;;;;;10.82;7.60;;;19.40;34.30;;;;;;5029771;28;20100;-96
2021/03/31 07:30:19;;;;;;;11.32;7.20;;;19.30;34.30;;;;;;5037063;28;20029;-96
2021/03/31 07:32:40;;;;;;;9.20;6.40;;;19.30;34.40;;;;;;5033452;28;20040;-96
2021/03/31 07:35:13;;;;;;;9.45;6.78;;;19.20;34.60;;;;;;5039081;28;20014;-96
2021/03/31 07:37:47;;;;;;;13.75;9.10;;;19.10;34.70;;;;;;5043949;28;20090;-96
2021/03/31 07:40:15;;;;;;;11.60;7.43;;;18.80;35.00;;;;;;5026745;28;20025;-95
2021/03/31 07:42:54;;;;;;;14.35;9.35;;;18.70;35.40;;;;;;5026180;28;20033;-94
2021/03/31 07:45:25;;;;;;;11.90;8.52;;;18.50;35.40;;;;;;5028282;28;20064;-96
2021/03/31 07:47:52;;;;;;;12.47;8.43;;;18.40;35.70;;;;;;5038262;28;20444;-95
2021/03/31 07:50:19;;;;;;;11.60;7.97;;;18.30;36.00;;;;;;5030345;28;20041;-96
2021/03/31 07:52:57;;;;;;;14.35;9.05;;;18.30;36.10;;;;;;5028075;28;20057;-94
2021/03/31 07:55:50;;;;;;;11.38;7.55;;;18.20;36.30;;;;;;5030287;28;20030;-96
2021/03/31 07:58:24;;;;;;;12.45;8.07;;;18.20;36.40;;;;;;5030074;28;20029;-92
2021/03/31 08:00:52;;;;;;;14.40;9.98;;;18.20;36.50;;;;;;5029015;28;20164;-93
2021/03/31 08:03:29;;;;;;;12.50;8.75;;;18.00;36.60;;;;;;5030620;28;20124;-96
2021/03/31 08:06:22;;;;;;;15.95;10.00;;;18.00;36.80;;;;;;5049076;28;20025;-96
2021/03/31 08:21:40;;;;;;;12.85;8.63;;;18.00;37.40;;;;;;5980655;22;20028;-97
2021/03/31 08:32:14;;;;;;;13.82;9.50;;;18.00;37.60;;;;;;5923170;22;20345;-96
2021/03/31 08:45:32;;;;;;;10.52;7.90;;;18.40;37.50;;;;;;5260640;22;20044;-95
2021/03/31 08:48:10;;;;;;;12.80;8.10;;;18.60;37.50;;;;;;5603387;22;20323;-96
2021/03/31 08:50:40;;;;;;;13.05;8.63;;;18.70;37.30;;;;;;5430395;22;20048;-93
2021/03/31 08:53:09;;;;;;;10.05;7.05;;;18.80;37.40;;;;;;5035148;28;20021;-94
2021/03/31 08:55:37;;;;;;;16.35;9.80;;;19.00;37.40;;;;;;5030646;28;20077;-95
2021/03/31 08:58:11;;;;;;;13.90;9.77;;;19.10;37.20;;;;;;5031363;28;20032;-93
2021/03/31 09:00:51;;;;;;;15.85;10.70;;;19.00;37.00;;;;;;5037575;28;20028;-93
2021/03/31 09:03:16;;;;;;;13.48;9.13;;;19.00;37.00;;;;;;5039184;28;20487;-95
2021/03/31 09:05:53;;;;;;;11.82;8.18;;;19.10;37.20;;;;;;5039283;28;20014;-96
2021/03/31 09:08:26;;;;;;;14.15;9.50;;;19.20;37.20;;;;;;5041269;28;20069;-95
2021/03/31 09:10:59;;;;;;;11.50;7.90;;;19.30;37.10;;;;;;5056831;28;20014;-95
2021/03/31 09:13:32;;;;;;;13.35;9.27;;;19.40;37.30;;;;;;5040462;28;20049;-95
2021/03/31 09:16:02;;;;;;;13.10;8.98;;;19.40;37.20;;;;;;5037894;28;20049;-96
2021/03/31 09:18:40;;;;;;;16.23;10.23;;;19.60;37.40;;;;;;5034630;28;20034;-96
2021/03/31 09:21:05;;;;;;;16.90;10.07;;;19.60;37.10;;;;;;5036412;28;20127;-95
2021/03/31 09:23:34;;;;;;;20.10;11.73;;;19.60;36.70;;;;;;5028592;28;20370;-95
2021/03/31 09:26:02;;;;;;;14.73;9.30;;;19.50;36.60;;;;;;5043292;28;20025;-95
2021/03/31 09:28:29;;;;;;;10.30;6.93;;;19.50;36.80;;;;;;5056800;28;20028;-96
2021/03/31 09:31:20;;;;;;;11.70;7.93;;;19.70;36.90;;;;;;5050170;28;20049;-96
2021/03/31 09:33:46;;;;;;;11.48;6.90;;;19.80;36.80;;;;;;5030568;28;20072;-95
2021/03/31 09:36:17;;;;;;;12.73;7.60;;;19.90;36.70;;;;;;5048539;28;20029;-96
2021/03/31 09:38:44;;;;;;;13.52;8.98;;;19.90;36.60;;;;;;5021583;28;20104;-95
2021/03/31 09:41:11;;;;;;;12.48;7.57;;;20.10;36.40;;;;;;5030975;28;20051;-96
2021/03/31 09:43:38;;;;;;;12.90;9.00;;;20.10;36.20;;;;;;5027491;28;20028;-94
2021/03/31 09:46:03;;;;;;;12.45;8.40;;;20.30;36.20;;;;;;5020816;28;20026;-94
2021/03/31 09:48:31;;;;;;;12.10;7.93;;;20.30;36.00;;;;;;5026143;28;20713;-94
2021/03/31 09:50:57;;;;;;;12.05;7.65;;;20.40;36.00;;;;;;5021007;28;20029;-94
2021/03/31 09:53:38;;;;;;;19.27;9.60;;;20.40;35.90;;;;;;5034924;28;20029;-95
2021/03/31 09:56:04;;;;;;;13.98;9.18;;;20.50;35.70;;;;;;5027936;28;20037;-94
2021/03/31 09:58:30;;;;;;;14.23;9.15;;;20.50;35.50;;;;;;5023148;28;20049;-94
2021/03/31 10:00:56;;;;;;;11.25;7.45;;;20.50;35.60;;;;;;5029390;28;20052;-95
2021/03/31 10:03:24;;;;;;;9.57;6.45;;;20.60;35.90;;;;;;5024184;28;20029;-94
2021/03/31 10:05:50;;;;;;;12.48;6.97;;;20.80;35.90;;;;;;5034567;28;20398;-94
2021/03/31 10:08:25;;;;;;;11.65;7.63;;;20.90;35.70;;;;;;5029958;28;20021;-93
2021/03/31 10:10:57;;;;;;;10.20;6.60;;;21.00;35.60;;;;;;5032214;28;20749;-92
2021/03/31 10:13:34;;;;;;;16.75;10.10;;;21.20;35.50;;;;;;5029531;28;20025;-96
2021/03/31 10:16:04;;;;;;;10.38;6.95;;;21.20;35.00;;;;;;5035779;28;20025;-94
2021/03/31 10:18:36;;;;;;;12.60;7.63;;;21.30;35.20;;;;;;5028068;28;20036;-95
2021/03/31 10:21:04;;;;;;;14.20;8.73;;;21.40;35.20;;;;;;5030703;28;20022;-95
2021/03/31 10:23:45;;;;;;;11.35;7.00;;;21.40;34.70;;;;;;5024965;28;20033;-95
2021/03/31 10:26:27;;;;;;;13.00;7.68;;;21.50;34.80;;;;;;5028563;28;20030;-94
2021/03/31 10:28:58;;;;;;;9.40;6.57;;;21.60;34.60;;;;;;5030563;28;20030;-94
2021/03/31 10:31:25;;;;;;;12.68;8.40;;;21.70;34.90;;;;;;5024384;28;20034;-96
2021/03/31 10:33:53;;;;;;;12.13;8.63;;;21.70;34.80;;;;;;5028974;28;20075;-94
2021/03/31 10:36:34;;;;;;;12.88;8.77;;;21.80;34.60;;;;;;5038839;28;20057;-95
2021/03/31 10:39:37;;;;;;;17.15;10.68;;;21.90;34.50;;;;;;5022505;28;20040;-96
2021/03/31 10:50:29;;;;;;;12.30;6.95;;;22.30;33.70;;;;;;5021484;28;20048;-93
2021/03/31 10:52:58;;;;;;;12.40;7.97;;;22.40;33.60;;;;;;5018201;28;20507;-96
2021/03/31 10:55:24;;;;;;;12.20;7.82;;;22.40;33.60;;;;;;5037385;28;20041;-96
2021/03/31 10:57:49;;;;;;;12.05;8.20;;;22.40;33.60;;;;;;5029113;28;20075;-95
2021/03/31 11:00:15;;;;;;;12.77;7.82;;;22.60;33.50;;;;;;5030714;28;20032;-96
2021/03/31 11:02:46;;;;;;;11.45;7.57;;;22.70;33.50;;;;;;5027890;28;20021;-95
2021/03/31 11:05:12;;;;;;;12.57;8.32;;;22.80;33.40;;;;;;5035913;28;20025;-93
2021/03/31 11:07:37;;;;;;;14.50;8.77;;;22.90;33.00;;;;;;5028565;28;20080;-94
2021/03/31 11:10:04;;;;;;;12.63;8.40;;;23.00;32.80;;;;;;5022934;28;20029;-95
2021/03/31 11:12:30;;;;;;;10.88;6.93;;;23.10;32.20;;;;;;5019038;28;20087;-95
2021/03/31 11:14:57;;;;;;;9.15;5.78;;;23.10;32.20;;;;;;5016968;28;20081;-94
2021/03/31 11:17:32;;;;;;;9.25;6.40;;;23.20;32.30;;;;;;5021893;28;20024;-93
2021/03/31 11:27:51;;;;;;;13.45;8.80;;;23.60;31.50;;;;;;5027360;28;20056;-95
2021/03/31 11:30:18;;;;;;;8.07;5.65;;;23.60;31.20;;;;;;5013981;28;20465;-96
2021/03/31 11:32:44;;;;;;;17.20;11.40;;;23.70;31.40;;;;;;5028623;28;20079;-96
2021/03/31 11:35:11;;;;;;;12.82;7.72;;;23.80;31.00;;;;;;5036221;28;20120;-96
2021/03/31 11:37:38;;;;;;;13.25;7.85;;;23.80;31.10;;;;;;5038048;28;20036;-96
2021/03/31 11:45:27;;;;;;;12.45;8.57;;;24.10;30.10;;;;;;5117904;22;20039;-95
2021/03/31 11:50:25;;;;;;;10.90;7.35;;;24.30;30.00;;;;;;5105195;22;20053;-96
2021/03/31 11:53:06;;;;;;;10.35;6.93;;;24.40;30.00;;;;;;5040814;28;20665;-96
2021/03/31 11:55:32;;;;;;;11.95;7.78;;;24.60;30.00;;;;;;5585283;22;20054;-93
2021/03/31 11:57:58;;;;;;;12.10;7.40;;;24.70;30.00;;;;;;5027246;28;20391;-96
2021/03/31 12:03:10;;;;;;;17.50;10.80;;;24.80;29.70;;;;;;5070505;22;20540;-96
2021/03/31 12:05:36;;;;;;;14.75;9.73;;;24.80;29.50;;;;;;5037905;28;20086;-95
2021/03/31 12:08:01;;;;;;;11.73;7.50;;;24.80;29.30;;;;;;5037838;28;20033;-96
2021/03/31 12:10:27;;;;;;;10.85;6.63;;;24.90;29.40;;;;;;5041892;28;20033;-96
2021/03/31 12:12:59;;;;;;;10.73;7.32;;;25.00;29.40;;;;;;5034488;28;20134;-95
2021/03/31 12:15:25;;;;;;;10.43;7.57;;;25.10;29.40;;;;;;5032579;28;20033;-95
2021/03/31 12:17:50;;;;;;;8.85;5.95;;;25.20;29.40;;;;;;5035494;28;20032;-96
2021/03/31 12:20:17;;;;;;;11.90;8.18;;;25.30;29.90;;;;;;5035820;28;20178;-96
2021/03/31 12:22:44;;;;;;;10.38;6.90;;;25.30;28.90;;;;;;5036947;28;20024;-96
2021/03/31 12:25:10;;;;;;;16.05;10.45;;;25.40;29.00;;;;;;5036229;28;20025;-90
2021/03/31 12:27:41;;;;;;;13.85;10.02;;;25.40;28.50;;;;;;5045033;28;20061;-96
2021/03/31 12:30:13;;;;;;;12.65;8.80;;;25.40;28.50;;;;;;5101817;23;20050;-95
2021/03/31 12:32:40;;;;;;;16.45;11.02;;;25.30;28.50;;;;;;4978408;28;20500;-95
2021/03/31 12:35:07;;;;;;;12.88;7.90;;;25.40;28.50;;;;;;4988075;28;20026;-95
2021/03/31 12:37:33;;;;;;;13.68;9.63;;;25.50;28.70;;;;;;4996717;28;20027;-95
2021/03/31 12:39:59;;;;;;;16.83;10.82;;;25.60;28.50;;;;;;4994491;28;20037;-96
2021/03/31 12:42:25;;;;;;;13.75;9.13;;;25.60;28.40;;;;;;5009077;28;20026;-91
2021/03/31 12:44:51;;;;;;;15.68;10.52;;;25.60;28.50;;;;;;4996870;28;20041;-91
2021/03/31 12:47:21;;;;;;;18.23;12.25;;;25.60;29.00;;;;;;4993501;28;20133;-90
2021/03/31 12:49:48;;;;;;;13.75;8.93;;;25.70;28.10;;;;;;4994052;28;20555;-90
2021/03/31 12:52:16;;;;;;;12.52;8.38;;;25.70;28.30;;;;;;4994081;28;20032;-91
2021/03/31 12:54:59;;;;;;;13.18;7.43;;;25.80;28.40;;;;;;4983606;28;20026;-92
2021/03/31 12:57:25;;;;;;;9.35;6.70;;;26.10;28.30;;;;;;4993053;28;20027;-90
2021/03/31 12:59:51;;;;;;;12.25;8.10;;;26.10;28.10;;;;;;4996163;28;20512;-89
2021/03/31 13:02:17;;;;;;;13.68;8.63;;;26.10;28.10;;;;;;4995755;28;20022;-92
2021/03/31 13:04:43;;;;;;;9.05;6.15;;;26.10;27.90;;;;;;4993835;28;20113;-93
2021/03/31 13:07:08;;;;;;;13.77;8.65;;;26.20;28.00;;;;;;4994803;28;20026;-92
2021/03/31 13:09:34;;;;;;;11.75;7.72;;;26.20;27.90;;;;;;4993796;28;20081;-92
2021/03/31 13:12:01;;;;;;;9.93;6.95;;;26.10;28.10;;;;;;4994369;28;20030;-91
2021/03/31 13:23:01;;;;;;;13.57;8.85;;;26.70;28.20;;;;;;4990801;28;20037;-92
2021/03/31 13:25:35;;;;;;;16.98;10.55;;;26.80;27.90;;;;;;4993142;28;20034;-90
2021/03/31 13:30:53;;;;;;;17.13;10.30;;;26.50;27.40;;;;;;4993906;28;20412;-92
2021/03/31 13:33:28;;;;;;;13.65;9.15;;;26.40;27.30;;;;;;4997837;28;20489;-91
2021/03/31 13:41:21;;;;;;;13.80;9.23;;;26.40;27.80;;;;;;4996753;28;20023;-95
2021/03/31 13:43:47;;;;;;;14.30;9.77;;;26.50;28.00;;;;;;5001974;28;20041;-87
2021/03/31 13:51:33;;;;;;;14.40;9.50;;;26.70;27.90;;;;;;5257038;22;20053;-96
2021/03/31 13:56:53;;;;;;;14.60;9.35;;;26.80;27.90;;;;;;5637611;22;20041;-96
2021/03/31 13:59:28;;;;;;;15.80;9.93;;;26.80;27.80;;;;;;5052263;28;20033;-96
2021/03/31 14:04:41;;;;;;;13.43;8.55;;;26.90;28.10;;;;;;5114217;22;20860;-95
2021/03/31 14:22:45;;;;;;;14.32;9.57;;;27.00;27.90;;;;;;5016128;28;20050;-96
2021/03/31 14:25:16;;;;;;;18.58;12.10;;;27.10;27.90;;;;;;5015586;28;20037;-94
2021/03/31 14:30:19;;;;;;;12.45;8.90;;;27.00;27.80;;;;;;5035504;23;20045;-96
2021/03/31 14:32:50;;;;;;;13.15;9.15;;;27.10;27.90;;;;;;5321688;22;20080;-95
2021/03/31 14:35:20;;;;;;;19.27;12.23;;;27.10;27.60;;;;;;5096347;22;20160;-96
2021/03/31 14:37:46;;;;;;;10.45;7.57;;;27.00;27.20;;;;;;5025782;28;20067;-94
2021/03/31 14:40:12;;;;;;;10.80;7.25;;;27.10;27.50;;;;;;5031331;28;20017;-96
2021/03/31 14:42:38;;;;;;;11.05;7.85;;;27.10;27.40;;;;;;5034073;28;20020;-96
2021/03/31 14:45:05;;;;;;;11.13;6.90;;;27.20;27.50;;;;;;5040167;28;20037;-96